GABS/BKO METAR and TAF weather

Enter ICAO airport designator
Station Type Date Time Source
GABS METAR 2021/09/24 05:00 UTC NOAA

GABS 240500Z VRB01KT 9999 FEW020 24/23 Q1014 NOSIG


Station Type Date Time Source
GABS Decoded METAR 2021/09/24 05:00 UTC NOAA

Bamako / Senou, Mali (GABS) 12-32N 007-57W 381M
Sep 24, 2021 - 01:00 AM EDT / 2021.09.24 0500 UTC
Wind: Variable at 1 MPH (1 KT):0
Visibility: greater than 7 mile(s):0
Sky conditions: mostly clear
Temperature: 75 F (24 C)
Dew Point: 73 F (23 C)
Relative Humidity: 94%
Pressure (altimeter): 29.94 in. Hg (1014 hPa)
ob: GABS 240500Z VRB01KT 9999 FEW020 24/23 Q1014 NOSIG
cycle: 5

Station Type Date Time Source
GABS TAF 2021/09/24 06:24 UTC NOAA

TAF TAF GABS 240515Z 2406/2512 VRB06KT 9999 FEW020 PROB40
TEMPO 2414/2420 VRB18G30KT 4000 TSRA SCT020 SCT030CB
TEMPO 2421/2502 08018G35KT 4000 TSRA SCT020 FEW030CB

Example: see airport list